Time;durP1;ratioP1;P1;durP2;ratioP2;P2;SDS_P1;SDS_P2;PMS_P1;PMS_P2;Temp;Humidity;BMP_temperature;BMP_pressure;BME280_temperature;BME280_humidity;BME280_pressure;Samples;Min_cycle;Max_cycle;Signal;HPM_P1;HPM_P2
2023/08/10 00:01:19;;;;;;;2.70;1.10;;;20.00;65.30;;;;;;5053853;28;20218;-62
2023/08/10 00:03:44;;;;;;;1.40;1.15;;;20.00;65.30;;;;;;5053716;28;20251;-62
2023/08/10 00:06:10;;;;;;;1.77;1.33;;;20.00;65.30;;;;;;5053180;28;20588;-62
2023/08/10 00:08:37;;;;;;;2.35;1.17;;;20.00;65.30;;;;;;5054054;28;20175;-61
2023/08/10 00:11:02;;;;;;;2.63;1.35;;;20.00;65.30;;;;;;5052810;28;20211;-61
2023/08/10 00:13:29;;;;;;;2.65;1.60;;;20.00;65.30;;;;;;5054352;28;20182;-61
2023/08/10 00:15:55;;;;;;;1.15;1.02;;;20.00;65.30;;;;;;5053462;28;20638;-61
2023/08/10 00:18:23;;;;;;;2.20;1.17;;;20.00;65.30;;;;;;5055561;28;20285;-62
2023/08/10 00:20:48;;;;;;;1.35;1.17;;;20.00;65.40;;;;;;5054267;28;20175;-62
2023/08/10 00:23:14;;;;;;;1.77;1.40;;;20.00;65.40;;;;;;5052805;28;20183;-62
2023/08/10 00:25:42;;;;;;;0.98;0.93;;;19.90;65.30;;;;;;5053274;28;20186;-61
2023/08/10 00:28:08;;;;;;;2.85;1.42;;;19.90;65.30;;;;;;5053787;28;20175;-62
2023/08/10 00:30:34;;;;;;;2.17;1.05;;;20.00;65.40;;;;;;5053066;28;20203;-61
2023/08/10 00:32:59;;;;;;;1.27;1.17;;;20.00;65.50;;;;;;5053831;28;20257;-63
2023/08/10 00:35:25;;;;;;;1.02;1.02;;;19.90;65.50;;;;;;5053727;28;20251;-62
2023/08/10 00:37:51;;;;;;;1.52;1.05;;;20.00;65.60;;;;;;5053234;28;20630;-62
2023/08/10 00:40:16;;;;;;;1.10;1.00;;;19.90;65.60;;;;;;5053499;28;20539;-62
2023/08/10 00:42:42;;;;;;;0.90;0.90;;;20.00;65.60;;;;;;5053811;28;20238;-62
2023/08/10 00:45:09;;;;;;;2.20;1.20;;;19.90;65.60;;;;;;5052672;28;20261;-62
2023/08/10 00:47:34;;;;;;;1.70;1.48;;;20.00;65.70;;;;;;5053523;28;20270;-62
2023/08/10 00:50:01;;;;;;;1.30;1.20;;;19.90;65.80;;;;;;5051622;28;20262;-62
2023/08/10 00:52:27;;;;;;;1.58;1.48;;;19.90;65.60;;;;;;5052443;28;20219;-62
2023/08/10 00:54:52;;;;;;;1.00;1.00;;;20.00;65.60;;;;;;5052125;28;20182;-62
2023/08/10 00:57:18;;;;;;;0.82;0.77;;;19.90;65.60;;;;;;5053184;28;20186;-62
2023/08/10 00:59:44;;;;;;;1.60;1.20;;;19.90;65.60;;;;;;5052032;28;20775;-62
2023/08/10 01:02:10;;;;;;;1.17;1.10;;;19.90;65.60;;;;;;5052147;28;20213;-62
2023/08/10 01:04:35;;;;;;;1.30;1.20;;;19.90;65.60;;;;;;5052018;28;20175;-62
2023/08/10 01:07:22;;;;;;;1.27;1.00;;;19.90;65.60;;;;;;5051245;28;20610;-62
2023/08/10 01:09:52;;;;;;;1.40;1.30;;;19.90;65.60;;;;;;5051188;28;20183;-62
2023/08/10 01:12:20;;;;;;;1.30;1.20;;;19.90;65.60;;;;;;5049414;28;20214;-62
2023/08/10 01:15:06;;;;;;;1.40;1.30;;;19.90;65.70;;;;;;5051640;28;20181;-61
2023/08/10 01:17:34;;;;;;;1.20;1.10;;;19.90;65.70;;;;;;5035037;28;20183;-62
2023/08/10 01:20:01;;;;;;;2.50;1.30;;;19.90;65.70;;;;;;5049533;28;20541;-62
2023/08/10 01:22:55;;;;;;;1.88;1.38;;;19.90;65.70;;;;;;5050761;28;20278;-62
2023/08/10 01:25:20;;;;;;;1.92;1.40;;;19.90;65.60;;;;;;5052492;28;20593;-62
2023/08/10 01:27:46;;;;;;;1.40;1.20;;;19.90;65.70;;;;;;5034458;28;20182;-62
2023/08/10 01:30:12;;;;;;;2.35;1.27;;;19.90;65.70;;;;;;5051504;28;20163;-63
2023/08/10 01:32:37;;;;;;;1.30;1.10;;;19.90;65.60;;;;;;5052738;28;20218;-63
2023/08/10 01:35:06;;;;;;;1.48;1.15;;;19.90;65.60;;;;;;5051855;28;20254;-62
2023/08/10 01:37:35;;;;;;;2.15;1.20;;;19.90;65.60;;;;;;5052982;28;20182;-63
2023/08/10 01:40:01;;;;;;;1.33;1.20;;;19.90;65.70;;;;;;5051951;28;20181;-62
2023/08/10 01:42:26;;;;;;;1.85;1.17;;;19.80;65.60;;;;;;5050902;28;20214;-61
2023/08/10 01:44:52;;;;;;;1.42;1.20;;;19.80;65.60;;;;;;5052149;28;20529;-61
2023/08/10 01:47:23;;;;;;;2.10;1.38;;;19.90;65.70;;;;;;5051855;28;20308;-61
2023/08/10 01:49:51;;;;;;;1.10;1.00;;;19.80;65.60;;;;;;5035485;28;20210;-61
2023/08/10 01:52:17;;;;;;;1.73;1.10;;;19.80;65.60;;;;;;5052358;28;20215;-62
2023/08/10 01:54:43;;;;;;;1.50;1.33;;;19.90;66.50;;;;;;5034072;28;20209;-61
2023/08/10 01:57:08;;;;;;;3.33;1.42;;;19.80;65.70;;;;;;5034316;28;20178;-62
2023/08/10 01:59:34;;;;;;;1.42;1.33;;;19.80;65.60;;;;;;5051249;28;20171;-62
2023/08/10 02:01:59;;;;;;;3.58;1.30;;;19.80;65.70;;;;;;5051784;28;20207;-62
2023/08/10 02:04:25;;;;;;;2.15;1.33;;;19.90;65.70;;;;;;5052332;28;20578;-62
2023/08/10 02:06:50;;;;;;;2.25;1.35;;;19.80;65.70;;;;;;5051903;28;20615;-62
2023/08/10 02:09:16;;;;;;;1.73;1.38;;;19.80;65.70;;;;;;5051053;28;20179;-60
2023/08/10 02:11:41;;;;;;;1.20;1.10;;;19.80;65.60;;;;;;5051077;28;20214;-62
2023/08/10 02:14:07;;;;;;;1.58;1.20;;;19.80;65.70;;;;;;5050622;28;20171;-62
2023/08/10 02:16:33;;;;;;;1.88;1.40;;;19.80;65.60;;;;;;5049378;28;20274;-63
2023/08/10 02:18:58;;;;;;;2.53;1.50;;;19.80;65.60;;;;;;5051767;28;20199;-63
2023/08/10 02:21:26;;;;;;;2.22;1.55;;;19.80;65.60;;;;;;5051749;28;20191;-63
2023/08/10 02:23:52;;;;;;;1.95;1.35;;;19.80;65.70;;;;;;5051217;28;20179;-63
2023/08/10 02:26:17;;;;;;;1.48;1.27;;;19.80;65.60;;;;;;5051479;28;20232;-63
2023/08/10 02:28:43;;;;;;;1.50;1.33;;;19.80;65.60;;;;;;5050721;28;20208;-62
2023/08/10 02:31:09;;;;;;;1.70;1.45;;;19.80;66.40;;;;;;5050757;28;20230;-63
2023/08/10 02:33:34;;;;;;;1.48;1.17;;;19.80;65.60;;;;;;5052318;28;20186;-63
2023/08/10 02:36:00;;;;;;;1.08;1.00;;;19.80;65.60;;;;;;5051427;28;20544;-63
2023/08/10 02:38:25;;;;;;;1.13;1.02;;;19.80;65.60;;;;;;5050665;28;20199;-63
2023/08/10 02:40:51;;;;;;;1.77;1.20;;;19.80;65.60;;;;;;5051660;28;20179;-63
2023/08/10 02:43:16;;;;;;;1.30;1.20;;;19.80;65.60;;;;;;5051457;28;20253;-62
2023/08/10 02:45:42;;;;;;;1.38;1.25;;;19.70;65.50;;;;;;5050526;28;20176;-63
2023/08/10 02:48:07;;;;;;;2.38;1.40;;;19.80;65.60;;;;;;5051147;28;20179;-63
2023/08/10 02:50:33;;;;;;;1.77;1.30;;;19.70;65.60;;;;;;5050635;28;20219;-65
2023/08/10 02:52:59;;;;;;;2.28;1.40;;;19.80;65.60;;;;;;5051555;28;20225;-63
2023/08/10 02:55:24;;;;;;;1.35;1.25;;;19.70;65.50;;;;;;5050610;28;20213;-62
2023/08/10 02:57:50;;;;;;;2.63;1.60;;;19.70;65.50;;;;;;5051443;28;20232;-62
2023/08/10 03:00:15;;;;;;;1.00;1.00;;;19.70;65.50;;;;;;5051548;28;20638;-63
2023/08/10 03:02:41;;;;;;;1.80;1.42;;;19.70;65.60;;;;;;5051325;28;20258;-63
2023/08/10 03:05:07;;;;;;;2.38;1.40;;;19.70;65.50;;;;;;5050832;28;20183;-63
2023/08/10 03:07:33;;;;;;;2.15;1.20;;;19.70;65.50;;;;;;5051030;28;20171;-63
2023/08/10 03:09:58;;;;;;;1.45;1.20;;;19.70;65.50;;;;;;5051082;28;20194;-63
2023/08/10 03:12:24;;;;;;;1.85;1.35;;;19.70;65.50;;;;;;5050341;28;20753;-62
2023/08/10 03:14:50;;;;;;;1.60;1.38;;;19.70;65.60;;;;;;5051716;28;20254;-62
2023/08/10 03:17:15;;;;;;;1.95;1.27;;;19.70;65.60;;;;;;5051257;28;20183;-62
2023/08/10 03:19:44;;;;;;;4.10;1.13;;;19.70;65.60;;;;;;5050927;28;20213;-63
2023/08/10 03:22:09;;;;;;;2.42;1.30;;;19.70;65.60;;;;;;5049722;28;20185;-63
2023/08/10 03:24:41;;;;;;;1.92;1.33;;;19.70;66.50;;;;;;5051064;28;20262;-62
2023/08/10 03:27:06;;;;;;;2.00;1.33;;;19.70;65.70;;;;;;5050839;28;20210;-63
2023/08/10 03:29:32;;;;;;;2.30;1.25;;;19.70;65.60;;;;;;5051540;28;20167;-62
2023/08/10 03:31:57;;;;;;;1.50;1.40;;;19.70;65.60;;;;;;5050626;28;20211;-63
2023/08/10 03:34:23;;;;;;;1.30;1.13;;;19.70;65.60;;;;;;5050153;28;20202;-63
2023/08/10 03:36:48;;;;;;;1.70;1.48;;;19.70;65.70;;;;;;5050298;28;20179;-63
2023/08/10 03:39:14;;;;;;;1.67;1.20;;;19.70;65.70;;;;;;5052109;28;20175;-63
2023/08/10 03:41:39;;;;;;;1.55;1.45;;;19.70;65.70;;;;;;5054673;28;20193;-63
2023/08/10 03:44:05;;;;;;;1.42;1.20;;;19.70;65.70;;;;;;5054466;28;20587;-63
2023/08/10 03:46:31;;;;;;;1.27;1.13;;;19.70;65.70;;;;;;5055031;28;20182;-62
2023/08/10 03:48:56;;;;;;;2.67;1.30;;;19.70;65.70;;;;;;5054146;28;20254;-63
2023/08/10 03:51:22;;;;;;;4.70;1.40;;;19.60;66.60;;;;;;5054699;28;20211;-63
2023/08/10 03:53:50;;;;;;;1.48;1.27;;;19.70;65.80;;;;;;5055521;28;20229;-62
2023/08/10 03:56:16;;;;;;;1.65;1.40;;;19.70;65.80;;;;;;5054853;28;20331;-63
2023/08/10 03:58:41;;;;;;;2.25;1.35;;;19.60;65.70;;;;;;5054763;28;20630;-62
2023/08/10 04:01:08;;;;;;;1.42;1.30;;;19.70;65.80;;;;;;5053033;28;20183;-63
2023/08/10 04:03:33;;;;;;;2.97;1.40;;;19.70;65.80;;;;;;5054829;28;20638;-63
2023/08/10 04:05:59;;;;;;;1.73;1.20;;;19.70;66.70;;;;;;5054676;28;20182;-63
2023/08/10 04:08:25;;;;;;;2.00;1.45;;;19.60;65.70;;;;;;5052954;28;20179;-63
2023/08/10 04:10:50;;;;;;;2.53;1.17;;;19.70;65.90;;;;;;5054730;28;20215;-62
2023/08/10 04:13:16;;;;;;;1.33;1.10;;;19.60;65.80;;;;;;5054027;28;20248;-63
2023/08/10 04:15:41;;;;;;;1.42;1.20;;;19.60;65.80;;;;;;5054074;28;20179;-63
2023/08/10 04:18:07;;;;;;;1.98;1.45;;;19.60;65.80;;;;;;5053697;28;20281;-63
2023/08/10 04:20:36;;;;;;;2.80;1.40;;;19.60;65.80;;;;;;5054257;28;20171;-62
2023/08/10 04:23:01;;;;;;;2.05;1.40;;;19.70;65.80;;;;;;5053090;28;20199;-62
2023/08/10 04:25:27;;;;;;;1.20;1.10;;;19.60;65.90;;;;;;5054580;28;20210;-62
2023/08/10 04:27:53;;;;;;;1.25;1.15;;;19.60;65.80;;;;;;5054139;28;20179;-62
2023/08/10 04:30:18;;;;;;;1.65;1.45;;;19.60;65.80;;;;;;5052959;28;20163;-62
2023/08/10 04:32:44;;;;;;;1.30;1.20;;;19.60;65.80;;;;;;5054119;28;20256;-62
2023/08/10 04:35:09;;;;;;;1.20;1.00;;;19.60;65.80;;;;;;5052980;28;20167;-62
2023/08/10 04:37:35;;;;;;;1.50;1.40;;;19.60;65.80;;;;;;5052152;28;20206;-62
2023/08/10 04:40:03;;;;;;;1.92;1.52;;;19.60;65.70;;;;;;5052985;28;20183;-62
2023/08/10 04:42:28;;;;;;;1.23;1.13;;;19.60;65.80;;;;;;5053636;28;20227;-63
2023/08/10 04:44:54;;;;;;;1.73;1.63;;;19.60;65.80;;;;;;5053304;28;20524;-62
2023/08/10 04:47:20;;;;;;;1.73;1.20;;;19.60;65.90;;;;;;5053557;28;20203;-62
2023/08/10 04:49:45;;;;;;;1.48;1.38;;;19.60;65.90;;;;;;5053973;28;20601;-62
2023/08/10 04:52:11;;;;;;;1.33;1.08;;;19.60;66.00;;;;;;5050578;28;20264;-62
2023/08/10 04:54:37;;;;;;;1.55;1.45;;;19.60;65.90;;;;;;5053445;28;20167;-63
2023/08/10 04:57:03;;;;;;;2.15;1.30;;;19.60;65.90;;;;;;5053067;28;20183;-65
2023/08/10 04:59:28;;;;;;;1.65;1.08;;;19.60;65.90;;;;;;5053773;28;20642;-63
2023/08/10 05:01:54;;;;;;;1.42;1.27;;;19.60;66.00;;;;;;5053516;28;20179;-63
2023/08/10 05:04:19;;;;;;;1.92;1.33;;;19.60;65.90;;;;;;5052306;28;20533;-63
2023/08/10 05:06:45;;;;;;;1.50;1.33;;;19.60;65.90;;;;;;5052824;28;20585;-62
2023/08/10 05:09:11;;;;;;;2.10;1.52;;;19.60;66.70;;;;;;5053183;28;20627;-62
2023/08/10 05:11:36;;;;;;;1.30;1.20;;;19.60;65.80;;;;;;5051776;28;20246;-62
2023/08/10 05:14:02;;;;;;;1.60;1.30;;;19.60;65.80;;;;;;5053130;28;20179;-62
2023/08/10 05:16:28;;;;;;;1.70;1.30;;;19.60;65.90;;;;;;5053302;28;20202;-62
2023/08/10 05:18:55;;;;;;;1.27;1.17;;;19.60;65.80;;;;;;5052123;28;20629;-62
2023/08/10 05:21:21;;;;;;;3.35;1.35;;;19.60;65.90;;;;;;5052491;28;20207;-61
2023/08/10 05:23:46;;;;;;;2.55;1.27;;;19.60;65.90;;;;;;5053237;28;20206;-62
2023/08/10 05:26:12;;;;;;;1.48;1.38;;;19.60;65.90;;;;;;5052181;28;20175;-62
2023/08/10 05:28:38;;;;;;;2.50;1.35;;;19.60;66.00;;;;;;5052830;28;20171;-62
2023/08/10 05:31:03;;;;;;;1.45;1.30;;;19.60;66.00;;;;;;5052719;28;20214;-62
2023/08/10 05:33:29;;;;;;;2.83;1.40;;;19.60;66.00;;;;;;5052201;28;20705;-63
2023/08/10 05:35:55;;;;;;;1.40;1.30;;;19.60;66.10;;;;;;5052695;28;20655;-63
2023/08/10 05:38:21;;;;;;;2.03;1.40;;;19.60;66.20;;;;;;5053096;28;20199;-63
2023/08/10 05:40:46;;;;;;;2.05;1.30;;;19.60;66.30;;;;;;5052308;28;20220;-63
2023/08/10 05:43:12;;;;;;;1.33;1.23;;;19.70;66.30;;;;;;5052487;28;20226;-62
2023/08/10 05:45:40;;;;;;;1.90;1.50;;;19.60;66.30;;;;;;5052954;28;20179;-63
2023/08/10 05:48:09;;;;;;;2.05;1.40;;;19.60;66.40;;;;;;5051402;28;20180;-69
2023/08/10 05:50:35;;;;;;;1.45;1.23;;;19.60;66.40;;;;;;5052485;28;20171;-62
2023/08/10 05:53:00;;;;;;;2.58;1.48;;;19.60;66.40;;;;;;5052706;28;20267;-63
2023/08/10 05:55:26;;;;;;;2.75;1.40;;;19.60;66.40;;;;;;5051792;28;20309;-62
2023/08/10 05:57:51;;;;;;;1.60;1.20;;;19.60;66.40;;;;;;5052441;28;20206;-63
2023/08/10 06:00:17;;;;;;;2.33;1.42;;;19.60;66.40;;;;;;5052199;28;20171;-63
2023/08/10 06:02:44;;;;;;;1.30;1.20;;;19.60;66.40;;;;;;5051891;28;20178;-63
2023/08/10 06:05:10;;;;;;;2.25;1.35;;;19.70;67.20;;;;;;5052527;28;20188;-63
2023/08/10 06:07:36;;;;;;;1.67;1.33;;;19.70;66.30;;;;;;5051773;28;20186;-63
2023/08/10 06:10:03;;;;;;;1.27;1.17;;;19.60;66.30;;;;;;5052141;28;20187;-62
2023/08/10 06:12:30;;;;;;;1.60;1.20;;;19.60;66.30;;;;;;5052202;28;20209;-62
2023/08/10 06:14:55;;;;;;;1.20;1.15;;;19.60;66.30;;;;;;5051951;28;20596;-62
2023/08/10 06:17:21;;;;;;;1.00;1.00;;;19.70;66.30;;;;;;5051878;28;20706;-62
2023/08/10 06:19:51;;;;;;;1.30;1.20;;;19.70;66.30;;;;;;5052267;28;20585;-62
2023/08/10 06:22:17;;;;;;;2.63;1.25;;;19.70;66.20;;;;;;5051362;28;20265;-62
2023/08/10 06:24:43;;;;;;;1.27;1.17;;;19.70;66.20;;;;;;5052462;28;20214;-62
2023/08/10 06:27:08;;;;;;;1.35;0.93;;;19.70;66.20;;;;;;5052268;28;20625;-62
2023/08/10 06:29:35;;;;;;;1.58;1.42;;;19.70;66.10;;;;;;5051325;28;20186;-62
2023/08/10 06:32:02;;;;;;;1.50;1.40;;;19.70;66.10;;;;;;5051667;28;20693;-63
2023/08/10 06:34:28;;;;;;;1.40;1.10;;;19.70;66.10;;;;;;5052376;28;20214;-63
2023/08/10 06:36:53;;;;;;;1.20;1.20;;;19.70;66.00;;;;;;5051705;28;20281;-61
2023/08/10 06:39:19;;;;;;;2.78;1.25;;;19.70;66.90;;;;;;5051291;28;20202;-60
2023/08/10 06:41:44;;;;;;;2.83;1.70;;;19.70;66.10;;;;;;5051808;28;20614;-61
2023/08/10 06:44:10;;;;;;;3.45;1.63;;;19.70;66.10;;;;;;5051013;28;20270;-60
2023/08/10 06:46:36;;;;;;;1.75;1.65;;;19.80;66.20;;;;;;5052073;28;20179;-60
2023/08/10 06:49:01;;;;;;;3.17;1.40;;;19.90;66.50;;;;;;5051837;28;20183;-59
2023/08/10 06:51:27;;;;;;;3.15;1.65;;;19.90;67.50;;;;;;5051220;28;20543;-60
2023/08/10 06:53:52;;;;;;;2.97;1.58;;;19.90;66.70;;;;;;5052254;28;20175;-60
2023/08/10 06:56:18;;;;;;;1.52;1.20;;;19.90;66.80;;;;;;5051824;28;20206;-60
2023/08/10 06:58:43;;;;;;;4.90;1.63;;;19.90;66.80;;;;;;5051042;28;20183;-60
2023/08/10 07:01:09;;;;;;;3.80;1.50;;;20.00;66.90;;;;;;5051764;28;20198;-60
2023/08/10 07:03:35;;;;;;;3.05;1.42;;;20.00;66.80;;;;;;5052286;28;20171;-60
2023/08/10 07:06:01;;;;;;;3.50;1.40;;;20.00;66.70;;;;;;5051413;28;20193;-60
2023/08/10 07:08:26;;;;;;;2.42;1.40;;;20.00;66.80;;;;;;5051536;28;20614;-60
2023/08/10 07:10:52;;;;;;;2.85;1.60;;;20.00;66.70;;;;;;5051223;28;20195;-60
2023/08/10 07:13:17;;;;;;;2.47;1.70;;;20.00;66.70;;;;;;5051822;28;20179;-59
2023/08/10 07:15:45;;;;;;;4.53;1.45;;;19.90;66.80;;;;;;5055573;28;20167;-60
2023/08/10 07:18:10;;;;;;;2.65;1.40;;;19.90;66.80;;;;;;5054687;28;20630;-60
2023/08/10 07:20:36;;;;;;;2.50;1.45;;;20.00;66.90;;;;;;5055618;28;20179;-60
2023/08/10 07:23:01;;;;;;;3.92;1.50;;;19.90;66.70;;;;;;5055514;28;20596;-60
2023/08/10 07:25:28;;;;;;;4.63;1.70;;;19.90;66.70;;;;;;5054724;28;20514;-60
2023/08/10 07:27:53;;;;;;;1.75;1.55;;;19.90;66.80;;;;;;5055618;28;20176;-60
2023/08/10 07:30:19;;;;;;;3.30;1.75;;;20.00;66.80;;;;;;5054228;28;20167;-60
2023/08/10 07:32:45;;;;;;;2.60;1.58;;;20.00;66.70;;;;;;5054587;28;20253;-60
2023/08/10 07:35:10;;;;;;;3.92;1.50;;;20.00;66.60;;;;;;5055104;28;20175;-62
2023/08/10 07:37:36;;;;;;;2.00;1.63;;;20.00;66.60;;;;;;5055575;28;20539;-61
2023/08/10 07:40:06;;;;;;;1.42;1.27;;;20.00;66.60;;;;;;5054385;28;20173;-61
2023/08/10 07:42:31;;;;;;;2.70;1.63;;;20.00;66.50;;;;;;5055074;28;20678;-61
2023/08/10 07:44:57;;;;;;;1.98;1.55;;;20.00;66.30;;;;;;5054616;28;20187;-62
2023/08/10 07:47:25;;;;;;;1.90;1.48;;;20.10;66.70;;;;;;5054730;28;20582;-63
2023/08/10 07:49:54;;;;;;;2.40;1.52;;;20.20;66.30;;;;;;5055192;28;20607;-62
2023/08/10 07:52:19;;;;;;;3.40;1.80;;;20.20;66.30;;;;;;5054048;28;20206;-62
2023/08/10 07:54:45;;;;;;;3.95;1.60;;;20.20;66.30;;;;;;5051176;28;20171;-62
2023/08/10 07:57:11;;;;;;;4.93;1.80;;;20.30;66.20;;;;;;5052148;28;20189;-62
2023/08/10 07:59:36;;;;;;;8.15;1.55;;;20.30;66.20;;;;;;5052786;28;20175;-62
2023/08/10 08:02:02;;;;;;;3.00;1.63;;;20.30;66.00;;;;;;5052047;28;20688;-63
2023/08/10 08:04:27;;;;;;;2.30;1.80;;;20.30;66.00;;;;;;5053063;28;20171;-63
2023/08/10 08:06:53;;;;;;;2.72;1.60;;;20.30;66.00;;;;;;5052852;28;20613;-63
2023/08/10 08:09:19;;;;;;;4.20;1.95;;;20.30;66.00;;;;;;5053342;28;20171;-62
2023/08/10 08:11:44;;;;;;;3.50;1.75;;;20.30;65.90;;;;;;5054813;28;20265;-62
2023/08/10 08:14:10;;;;;;;2.65;1.65;;;20.30;65.90;;;;;;5053568;28;20611;-62
2023/08/10 08:16:35;;;;;;;3.13;1.63;;;20.20;65.80;;;;;;5054890;28;20175;-62
2023/08/10 08:19:01;;;;;;;3.40;1.50;;;20.30;65.90;;;;;;5054557;28;20174;-62
2023/08/10 08:21:27;;;;;;;4.03;1.88;;;20.40;65.90;;;;;;5054303;28;20181;-62
2023/08/10 08:23:53;;;;;;;2.00;1.60;;;20.40;65.80;;;;;;5054822;28;20203;-62
2023/08/10 08:26:19;;;;;;;5.97;1.45;;;20.40;65.80;;;;;;5054151;28;20202;-62
2023/08/10 08:28:45;;;;;;;3.72;1.67;;;20.40;65.70;;;;;;5053642;28;20179;-62
2023/08/10 08:31:11;;;;;;;3.40;1.40;;;20.40;65.70;;;;;;5054282;28;20280;-62
2023/08/10 08:33:37;;;;;;;3.10;2.13;;;20.40;65.60;;;;;;5054411;28;20623;-63
2023/08/10 08:36:03;;;;;;;3.00;1.50;;;20.40;65.60;;;;;;5053187;28;20626;-63
2023/08/10 08:38:29;;;;;;;1.60;1.48;;;20.50;65.50;;;;;;5054157;28;20179;-63
2023/08/10 08:40:55;;;;;;;2.72;1.40;;;20.50;65.50;;;;;;5054060;28;20183;-63
2023/08/10 08:43:21;;;;;;;1.85;1.20;;;20.50;65.40;;;;;;5053131;28;20268;-63
2023/08/10 08:45:46;;;;;;;2.90;1.70;;;20.50;65.40;;;;;;5054317;28;20179;-63
2023/08/10 08:48:16;;;;;;;3.22;1.48;;;20.50;65.30;;;;;;5053567;28;20699;-62
2023/08/10 08:50:43;;;;;;;2.42;1.52;;;20.50;65.30;;;;;;5053397;28;20179;-62
2023/08/10 08:53:08;;;;;;;1.73;1.10;;;20.50;65.20;;;;;;5052443;28;20225;-62
2023/08/10 08:55:34;;;;;;;2.90;1.40;;;20.50;65.20;;;;;;5054001;28;20262;-62
2023/08/10 08:58:00;;;;;;;1.90;1.58;;;20.60;65.10;;;;;;5052885;28;20624;-62
2023/08/10 09:00:29;;;;;;;2.08;1.52;;;20.60;65.10;;;;;;5053896;28;20187;-64
2023/08/10 09:02:55;;;;;;;3.33;1.65;;;20.70;65.10;;;;;;5052594;28;20250;-62
2023/08/10 09:05:20;;;;;;;2.63;1.42;;;20.70;64.80;;;;;;5051641;28;20329;-63
2023/08/10 09:07:46;;;;;;;2.00;1.50;;;20.60;64.80;;;;;;5053659;28;20178;-64
2023/08/10 09:10:11;;;;;;;2.83;1.50;;;20.60;64.80;;;;;;5053280;28;20271;-62
2023/08/10 09:12:38;;;;;;;2.35;1.50;;;20.60;64.90;;;;;;5051745;28;20211;-63
2023/08/10 09:15:05;;;;;;;1.73;1.38;;;20.60;64.90;;;;;;5053428;28;20228;-61
2023/08/10 09:17:47;;;;;;;2.85;1.30;;;20.60;64.90;;;;;;5051831;28;20209;-62
2023/08/10 09:20:18;;;;;;;3.03;1.40;;;20.70;64.70;;;;;;5053357;28;20175;-62
2023/08/10 09:22:44;;;;;;;2.90;1.40;;;20.70;64.70;;;;;;5053597;28;20597;-63
2023/08/10 09:25:10;;;;;;;2.35;1.08;;;20.70;64.70;;;;;;5052210;28;20265;-62
2023/08/10 09:27:35;;;;;;;1.88;1.52;;;20.70;64.70;;;;;;5053440;28;20306;-62
2023/08/10 09:30:05;;;;;;;2.10;1.20;;;20.70;64.60;;;;;;5053231;28;20241;-62
2023/08/10 09:32:31;;;;;;;2.33;1.13;;;20.70;64.50;;;;;;5052256;28;20697;-63
2023/08/10 09:34:56;;;;;;;2.85;1.60;;;20.80;64.50;;;;;;5052847;28;20179;-63
2023/08/10 09:37:23;;;;;;;1.73;1.42;;;20.70;64.40;;;;;;5051423;28;20177;-63
2023/08/10 09:39:53;;;;;;;1.77;1.33;;;20.80;64.30;;;;;;5052601;28;20175;-63
2023/08/10 09:42:19;;;;;;;2.60;1.52;;;20.80;64.80;;;;;;5052787;28;20227;-63
2023/08/10 09:44:51;;;;;;;4.05;1.48;;;20.80;64.20;;;;;;5051888;28;20543;-62
2023/08/10 09:47:17;;;;;;;1.80;1.10;;;20.80;64.00;;;;;;5052101;28;20205;-62
2023/08/10 09:50:00;;;;;;;3.28;1.27;;;20.90;64.10;;;;;;5052907;28;20614;-62
2023/08/10 09:52:26;;;;;;;1.85;1.30;;;20.90;64.00;;;;;;5052479;28;20218;-62
2023/08/10 09:54:53;;;;;;;1.27;1.17;;;20.90;64.00;;;;;;5052793;28;20710;-62
2023/08/10 09:57:19;;;;;;;1.52;1.10;;;20.90;63.90;;;;;;5052538;28;20187;-62
2023/08/10 09:59:45;;;;;;;2.05;1.42;;;20.90;63.80;;;;;;5052096;28;20720;-64
2023/08/10 10:02:11;;;;;;;1.48;1.27;;;20.90;63.80;;;;;;5052225;28;20206;-63
2023/08/10 10:04:40;;;;;;;1.85;1.13;;;21.00;63.90;;;;;;5052481;28;20175;-63
2023/08/10 10:07:06;;;;;;;1.73;1.33;;;21.00;63.80;;;;;;5051356;28;20179;-63
2023/08/10 10:09:33;;;;;;;2.13;1.63;;;21.00;63.70;;;;;;5052343;28;20186;-63
2023/08/10 10:11:59;;;;;;;1.35;1.25;;;21.00;63.60;;;;;;5050928;28;20211;-61
2023/08/10 10:14:24;;;;;;;1.67;1.02;;;21.00;64.10;;;;;;5051586;28;20167;-62
2023/08/10 10:16:50;;;;;;;1.20;1.00;;;21.10;63.60;;;;;;5051065;28;20540;-62
2023/08/10 10:19:15;;;;;;;1.30;1.20;;;21.10;63.50;;;;;;5050702;28;20536;-62
2023/08/10 10:21:41;;;;;;;1.40;1.30;;;21.10;63.40;;;;;;5050705;28;20212;-63
2023/08/10 10:24:09;;;;;;;1.85;1.10;;;21.10;63.40;;;;;;5052148;28;20296;-62
2023/08/10 10:26:34;;;;;;;1.20;1.10;;;21.10;63.30;;;;;;5051131;28;20203;-62
2023/08/10 10:29:11;;;;;;;1.25;1.13;;;21.20;63.30;;;;;;5051313;28;20221;-62
2023/08/10 10:31:38;;;;;;;1.35;1.08;;;21.20;63.20;;;;;;5052354;28;20206;-63
2023/08/10 10:34:04;;;;;;;1.33;1.15;;;21.20;63.20;;;;;;5050901;28;20171;-63
2023/08/10 10:36:31;;;;;;;1.25;1.10;;;21.20;63.20;;;;;;5050267;28;20182;-63
2023/08/10 10:39:11;;;;;;;1.45;1.20;;;21.20;63.20;;;;;;5052290;28;20175;-63
2023/08/10 10:41:40;;;;;;;2.05;1.25;;;21.20;63.10;;;;;;5052295;28;20177;-63
2023/08/10 10:44:06;;;;;;;1.55;1.23;;;21.20;63.10;;;;;;5051398;28;20227;-63
2023/08/10 10:46:31;;;;;;;1.30;1.10;;;21.20;63.00;;;;;;5052362;28;20305;-62
2023/08/10 10:49:00;;;;;;;1.40;1.02;;;21.20;63.10;;;;;;5051840;28;20171;-62
2023/08/10 10:51:27;;;;;;;1.70;1.20;;;21.20;64.00;;;;;;5056230;28;20219;-62
2023/08/10 10:53:53;;;;;;;1.50;1.17;;;21.20;63.00;;;;;;5054854;28;20186;-62
2023/08/10 10:56:19;;;;;;;1.25;1.15;;;21.20;62.90;;;;;;5055056;28;20607;-63
2023/08/10 10:58:45;;;;;;;1.30;1.20;;;21.30;62.90;;;;;;5055944;28;20174;-62
2023/08/10 11:01:11;;;;;;;2.30;1.40;;;21.30;62.70;;;;;;5054322;28;20201;-63
2023/08/10 11:03:36;;;;;;;3.05;1.10;;;21.30;63.60;;;;;;5053884;28;20183;-63
2023/08/10 11:06:03;;;;;;;1.30;1.10;;;21.30;62.80;;;;;;5054163;28;20175;-63
2023/08/10 11:08:28;;;;;;;1.85;1.38;;;21.30;62.70;;;;;;5055885;28;20229;-63
2023/08/10 11:10:55;;;;;;;1.83;1.40;;;21.30;62.70;;;;;;5055030;28;20213;-62
2023/08/10 11:13:24;;;;;;;1.25;1.17;;;21.40;62.70;;;;;;5055628;28;20213;-62
2023/08/10 11:15:49;;;;;;;2.85;1.40;;;21.40;62.60;;;;;;5055916;28;20195;-62
2023/08/10 11:18:15;;;;;;;1.83;1.40;;;21.40;62.60;;;;;;5053451;28;20705;-62
2023/08/10 11:20:45;;;;;;;1.42;1.33;;;21.30;62.70;;;;;;5055598;28;20205;-63
2023/08/10 11:23:10;;;;;;;5.45;1.70;;;21.40;62.80;;;;;;5055269;28;20183;-62
2023/08/10 11:25:36;;;;;;;1.52;1.25;;;21.40;62.60;;;;;;5054639;28;20695;-62
2023/08/10 11:28:01;;;;;;;2.05;1.40;;;21.30;62.70;;;;;;5053898;28;20182;-62
2023/08/10 11:30:27;;;;;;;1.30;1.20;;;21.40;62.70;;;;;;5055528;28;20194;-62
2023/08/10 11:32:53;;;;;;;2.08;1.33;;;21.50;62.50;;;;;;5054499;28;20261;-62
2023/08/10 11:35:20;;;;;;;1.50;1.40;;;21.50;62.40;;;;;;5055156;28;20222;-63
2023/08/10 11:37:46;;;;;;;1.35;1.25;;;21.40;62.40;;;;;;5055465;28;20201;-63
2023/08/10 11:40:20;;;;;;;1.20;1.10;;;21.40;62.60;;;;;;5054233;28;20197;-62
2023/08/10 11:43:04;;;;;;;1.67;1.50;;;21.40;62.60;;;;;;5054468;28;20222;-63
2023/08/10 11:45:30;;;;;;;1.73;1.25;;;21.40;62.70;;;;;;5053412;28;20187;-62
2023/08/10 11:47:57;;;;;;;2.05;1.25;;;21.40;62.80;;;;;;5053831;28;20270;-62
2023/08/10 11:50:26;;;;;;;1.40;1.30;;;21.40;62.80;;;;;;5053785;28;20683;-62
2023/08/10 11:52:52;;;;;;;2.83;1.40;;;21.50;62.70;;;;;;5052919;28;20218;-62
2023/08/10 11:55:18;;;;;;;1.65;1.48;;;21.40;62.60;;;;;;5052176;28;20255;-62
2023/08/10 11:57:52;;;;;;;1.88;1.27;;;21.50;62.50;;;;;;5053847;28;20233;-62
2023/08/10 12:00:18;;;;;;;1.58;1.40;;;21.50;62.30;;;;;;5052407;28;20249;-63
2023/08/10 12:03:06;;;;;;;1.40;1.30;;;21.60;62.30;;;;;;5053560;28;20179;-62
2023/08/10 12:05:45;;;;;;;2.58;1.25;;;21.60;62.30;;;;;;5049968;28;20677;-62
2023/08/10 12:08:15;;;;;;;1.90;1.27;;;21.60;62.20;;;;;;5052538;28;20182;-62
2023/08/10 12:10:43;;;;;;;1.70;1.25;;;21.60;62.10;;;;;;5053416;28;20179;-62
2023/08/10 12:13:13;;;;;;;1.95;1.40;;;21.70;62.10;;;;;;5052417;28;20187;-62
2023/08/10 12:15:44;;;;;;;2.15;1.45;;;21.60;62.10;;;;;;5053328;28;20625;-61
2023/08/10 12:18:10;;;;;;;1.55;1.45;;;21.60;62.30;;;;;;5053346;28;20597;-62
2023/08/10 12:20:35;;;;;;;1.48;1.38;;;21.60;62.30;;;;;;5052877;28;20646;-62
2023/08/10 12:23:01;;;;;;;1.88;1.10;;;21.60;62.30;;;;;;5051928;28;20653;-62
2023/08/10 12:25:27;;;;;;;1.63;1.45;;;21.50;62.40;;;;;;5052116;28;20231;-62
2023/08/10 12:27:52;;;;;;;1.63;1.30;;;21.50;63.20;;;;;;5052442;28;20634;-62
2023/08/10 12:30:18;;;;;;;1.40;1.30;;;21.50;62.50;;;;;;5052931;28;20179;-62
2023/08/10 12:32:44;;;;;;;1.60;1.50;;;21.50;62.60;;;;;;5053301;28;20687;-63
2023/08/10 12:35:09;;;;;;;1.30;1.10;;;21.40;62.60;;;;;;5052087;28;20167;-63
2023/08/10 12:37:36;;;;;;;1.77;1.55;;;21.40;62.50;;;;;;5053266;28;20198;-63
2023/08/10 12:40:02;;;;;;;1.70;1.58;;;21.50;62.50;;;;;;5052810;28;20254;-62
2023/08/10 12:42:28;;;;;;;1.88;1.38;;;21.50;62.40;;;;;;5014843;28;1082178;-63
2023/08/10 12:44:53;;;;;;;1.35;1.25;;;21.60;62.30;;;;;;5053978;28;20198;-62